Time;durP1;ratioP1;P1;durP2;ratioP2;P2;SDS_P1;SDS_P2;PMS_P1;PMS_P2;Temp;Humidity;BMP_temperature;BMP_pressure;BME280_temperature;BME280_humidity;BME280_pressure;Samples;Min_cycle;Max_cycle;Signal;HPM_P1;HPM_P2
2022/06/03 00:00:23;;;;;;;13.85;7.40;;;;;;;22.51;100.00;100554.09;4993877;28;20129;-83
2022/06/03 00:03:25;;;;;;;15.02;8.23;;;;;;;22.48;100.00;100549.16;4993763;28;20068;-83
2022/06/03 00:06:09;;;;;;;17.73;7.78;;;;;;;22.31;100.00;100553.66;4993959;28;20484;-84
2022/06/03 00:09:03;;;;;;;19.00;7.60;;;;;;;22.17;100.00;100556.88;4993788;28;20486;-85
2022/06/03 00:12:02;;;;;;;18.30;8.65;;;;;;;22.21;100.00;100560.72;4993763;28;20381;-85
2022/06/03 00:14:47;;;;;;;13.90;8.00;;;;;;;22.17;100.00;100561.19;4993830;28;20104;-85
2022/06/03 00:17:39;;;;;;;14.23;8.38;;;;;;;22.02;100.00;100555.47;4993532;28;20468;-85
2022/06/03 00:20:45;;;;;;;18.30;8.82;;;;;;;21.99;100.00;100557.81;4993643;28;20558;-86
2022/06/03 00:23:29;;;;;;;10.15;8.07;;;;;;;22.04;100.00;100563.34;4982664;28;20050;-83
2022/06/03 00:26:13;;;;;;;14.93;8.38;;;;;;;22.00;100.00;100568.41;4993402;28;20562;-84
2022/06/03 00:28:45;;;;;;;15.85;7.90;;;;;;;21.82;100.00;100568.47;4993590;28;20038;-87
2022/06/03 00:31:30;;;;;;;11.40;8.35;;;;;;;21.64;100.00;100568.59;4993797;28;20035;-85
2022/06/03 00:34:32;;;;;;;15.85;8.02;;;;;;;21.50;100.00;100567.16;4993812;28;20034;-84
2022/06/03 00:37:27;;;;;;;16.35;8.70;;;;;;;21.58;100.00;100566.78;4997448;28;20409;-82
2022/06/03 00:39:59;;;;;;;15.18;8.30;;;;;;;21.58;100.00;100569.50;4983745;28;20089;-84
2022/06/03 00:42:36;;;;;;;15.15;8.32;;;;;;;21.58;100.00;100572.19;4994206;28;20041;-81
2022/06/03 00:45:26;;;;;;;13.70;9.00;;;;;;;21.57;100.00;100573.28;4997304;28;20549;-85
2022/06/03 00:48:02;;;;;;;15.40;8.88;;;;;;;21.63;100.00;100567.75;4997431;28;20550;-87
2022/06/03 00:50:57;;;;;;;22.40;8.25;;;;;;;21.73;100.00;100582.53;4997466;28;20058;-86
2022/06/03 00:53:56;;;;;;;10.45;7.72;;;;;;;21.90;100.00;100584.34;4972072;28;20568;-85
2022/06/03 00:56:59;;;;;;;14.13;8.10;;;;;;;22.11;100.00;100574.81;4993298;28;20133;-88
2022/06/03 00:59:37;;;;;;;;;;;;;;;21.94;100.00;100572.00;4997936;28;20065;-83
2022/06/03 01:02:39;;;;;;;13.40;8.10;;;;;;;21.91;100.00;100579.75;4997466;28;19918;-85
2022/06/03 01:05:09;;;;;;;15.73;7.70;;;;;;;22.01;100.00;100580.81;4980742;28;20084;-86
2022/06/03 01:07:53;;;;;;;20.05;8.20;;;;;;;22.03;100.00;100592.22;4999642;28;20030;-84
2022/06/03 01:10:54;;;;;;;12.68;7.85;;;;;;;22.11;100.00;100591.00;4998022;28;20084;-82
2022/06/03 01:14:05;;;;;;;14.98;8.32;;;;;;;22.00;100.00;100581.88;4969220;28;20069;-83
2022/06/03 01:16:57;;;;;;;11.93;7.65;;;;;;;22.06;100.00;100578.25;4998014;28;20117;-85
2022/06/03 01:19:34;;;;;;;10.27;7.40;;;;;;;22.12;100.00;100588.09;4997761;28;20038;-87
2022/06/03 01:22:32;;;;;;;15.45;8.02;;;;;;;22.11;100.00;100591.84;4997171;28;20134;-88
2022/06/03 01:25:22;;;;;;;12.32;8.07;;;;;;;21.95;100.00;100584.47;4997093;28;20046;-85
2022/06/03 01:28:20;;;;;;;14.77;9.23;;;;;;;21.79;100.00;100598.63;4979764;28;20062;-86
2022/06/03 01:30:51;;;;;;;12.45;9.02;;;;;;;21.78;100.00;100601.53;4997057;28;20073;-86
2022/06/03 01:33:47;;;;;;;14.25;8.50;;;;;;;21.80;100.00;100597.56;4997099;28;20050;-85
2022/06/03 01:36:31;;;;;;;12.00;8.70;;;;;;;21.86;100.00;100599.34;4997079;28;20070;-84
2022/06/03 01:39:08;;;;;;;12.35;8.65;;;;;;;21.90;100.00;100605.13;4979293;28;20101;-88
2022/06/03 01:41:53;;;;;;;16.58;9.02;;;;;;;22.01;100.00;100590.78;4996436;28;20468;-89
2022/06/03 01:44:29;;;;;;;24.80;9.18;;;;;;;21.97;100.00;100586.94;4996777;28;20038;-86
2022/06/03 01:47:22;;;;;;;15.63;8.32;;;;;;;21.88;100.00;100583.72;4996853;28;20026;-86
2022/06/03 01:49:57;;;;;;;15.27;8.88;;;;;;;21.81;100.00;100585.69;4996678;28;20034;-87
2022/06/03 01:53:04;;;;;;;15.30;8.77;;;;;;;21.79;100.00;100590.53;4979335;28;20046;-85
2022/06/03 01:56:08;;;;;;;14.18;8.80;;;;;;;21.86;100.00;100593.94;4995845;28;20129;-87
2022/06/03 01:58:34;;;;;;;15.85;8.45;;;;;;;21.94;100.00;100606.31;4996801;28;20042;-85
2022/06/03 02:01:10;;;;;;;15.73;7.90;;;;;;;21.83;100.00;100612.47;4996573;28;20126;-86
2022/06/03 02:03:54;;;;;;;16.45;8.45;;;;;;;21.68;100.00;100615.59;4997214;28;20038;-89
2022/06/03 02:07:07;;;;;;;14.50;8.25;;;;;;;21.53;100.00;100609.84;4996075;28;20038;-86
2022/06/03 02:09:57;;;;;;;13.73;9.50;;;;;;;21.45;100.00;100610.16;4995676;28;20056;-88
2022/06/03 02:12:54;;;;;;;14.52;10.50;;;;;;;21.41;100.00;100606.31;4996172;28;20034;-87
2022/06/03 02:15:49;;;;;;;21.75;12.45;;;;;;;21.44;100.00;100601.25;4978352;28;20404;-87
2022/06/03 02:18:42;;;;;;;19.88;12.75;;;;;;;21.36;100.00;100598.06;4956110;28;20498;-87
2022/06/03 02:21:16;;;;;;;16.65;10.80;;;;;;;21.36;100.00;100614.25;4995983;28;20495;-88
2022/06/03 02:23:57;;;;;;;17.35;11.60;;;;;;;21.40;100.00;100620.84;4995726;28;20035;-84
2022/06/03 02:26:31;;;;;;;16.33;12.38;;;;;;;21.21;100.00;100622.78;4995564;28;20062;-83
2022/06/03 02:32:32;;;;;;;20.52;14.50;;;;;;;21.03;100.00;100604.72;4995433;28;20069;-85
2022/06/03 02:35:23;;;;;;;18.30;13.65;;;;;;;21.01;100.00;100606.81;4995583;28;20034;-85
2022/06/03 02:37:55;;;;;;;13.85;12.02;;;;;;;21.10;100.00;100610.91;4995457;28;20034;-85
2022/06/03 02:41:02;;;;;;;16.75;11.45;;;;;;;20.88;100.00;100617.78;4995636;28;20030;-84
2022/06/03 02:43:45;;;;;;;18.88;10.63;;;;;;;20.65;100.00;100622.22;4978219;28;20061;-87
2022/06/03 02:46:32;;;;;;;14.13;10.20;;;;;;;20.49;100.00;100629.84;4995519;28;20034;-84
2022/06/03 02:49:19;;;;;;;15.90;9.73;;;;;;;20.44;100.00;100624.31;4995427;28;20044;-88
2022/06/03 02:52:03;;;;;;;18.17;10.10;;;;;;;20.42;100.00;100622.88;4979567;28;20566;-85
2022/06/03 02:55:10;;;;;;;13.20;9.48;;;;;;;20.60;100.00;100617.50;4994848;28;20034;-86
2022/06/03 02:58:20;;;;;;;18.05;11.10;;;;;;;20.40;100.00;100625.00;4900535;29;20100;-85
2022/06/03 03:01:16;;;;;;;21.13;10.77;;;;;;;20.33;100.00;100627.75;4916215;29;20526;-83
2022/06/03 03:03:56;;;;;;;13.95;9.52;;;;;;;20.38;100.00;100635.16;4916759;29;20535;-84
2022/06/03 03:06:57;;;;;;;24.02;10.60;;;;;;;20.41;100.00;100640.09;4916497;29;20489;-83
2022/06/03 03:09:23;;;;;;;16.70;10.00;;;;;;;20.39;100.00;100640.31;4969371;28;20058;-84
2022/06/03 03:12:19;;;;;;;13.43;9.93;;;;;;;20.39;100.00;100639.50;4995964;28;20036;-82
2022/06/03 03:15:12;;;;;;;16.67;10.18;;;;;;;20.31;100.00;100647.88;4978946;28;20038;-84
2022/06/03 03:17:55;;;;;;;18.88;9.63;;;;;;;20.38;100.00;100643.25;4998205;28;20447;-85
2022/06/03 03:20:45;;;;;;;18.33;10.18;;;;;;;20.35;100.00;100641.00;4996661;28;20038;-84
2022/06/03 03:23:10;;;;;;;18.60;10.50;;;;;;;20.35;100.00;100632.94;4997222;28;20031;-87
2022/06/03 03:26:00;;;;;;;19.20;12.57;;;;;;;20.29;100.00;100636.47;4996974;28;20038;-83
2022/06/03 03:28:49;;;;;;;22.98;12.75;;;;;;;20.31;100.00;100642.47;4999842;28;20046;-82
2022/06/03 03:31:27;;;;;;;18.58;12.20;;;;;;;20.15;100.00;100653.78;4974137;28;20100;-82
2022/06/03 03:34:20;;;;;;;20.15;8.55;;;;;;;20.09;100.00;100672.44;4994925;28;20069;-84
2022/06/03 03:37:04;;;;;;;14.63;8.55;;;;;;;19.99;100.00;100661.38;5000961;28;20104;-80
2022/06/03 03:40:07;;;;;;;12.45;8.55;;;;;;;19.69;100.00;100657.66;4993946;28;20081;-80
2022/06/03 03:42:46;;;;;;;18.40;9.65;;;;;;;19.58;100.00;100664.59;4994243;28;20045;-84
2022/06/03 03:45:21;;;;;;;21.02;10.27;;;;;;;19.62;100.00;100681.09;4993842;28;20031;-83
2022/06/03 03:48:14;;;;;;;22.02;10.07;;;;;;;19.64;100.00;100681.72;4993875;28;20083;-84
2022/06/03 03:50:56;;;;;;;16.23;10.18;;;;;;;19.64;100.00;100679.03;4993836;28;20030;-86
2022/06/03 03:53:30;;;;;;;15.23;8.03;;;;;;;19.63;100.00;100671.16;4993925;28;20487;-82
2022/06/03 03:56:34;;;;;;;23.00;10.77;;;;;;;19.62;100.00;100666.84;4994581;28;20120;-85
2022/06/03 03:59:21;;;;;;;16.48;10.43;;;;;;;19.71;100.00;100663.66;4993860;28;20145;-81
2022/06/03 04:02:11;;;;;;;19.55;11.02;;;;;;;19.59;100.00;100663.53;4977395;28;20062;-86
2022/06/03 04:05:03;;;;;;;17.27;10.98;;;;;;;19.65;100.00;100669.94;4998622;28;20553;-85
2022/06/03 04:07:53;;;;;;;16.80;11.50;;;;;;;19.64;100.00;100670.97;5016102;28;20403;-89
2022/06/03 04:10:25;;;;;;;18.70;11.82;;;;;;;19.63;100.00;100672.00;5003850;28;20030;-87
2022/06/03 04:13:27;;;;;;;18.27;12.57;;;;;;;19.64;100.00;100673.66;5015969;28;20042;-90
2022/06/03 04:16:25;;;;;;;27.17;12.75;;;;;;;19.61;100.00;100679.47;4997775;28;20038;-88
2022/06/03 04:19:07;;;;;;;18.10;12.43;;;;;;;19.68;100.00;100688.31;5001206;28;20030;-89
2022/06/03 04:21:38;;;;;;;19.33;13.02;;;;;;;19.73;100.00;100684.94;4999136;28;20037;-89
2022/06/03 04:24:29;;;;;;;25.33;12.98;;;;;;;19.82;100.00;100681.78;5018037;28;20104;-86
2022/06/03 04:27:14;;;;;;;33.80;13.90;;;;;;;19.85;100.00;100678.66;5017812;28;20022;-88
2022/06/03 04:30:20;;;;;;;23.58;14.32;;;;;;;19.95;100.00;100670.13;4980411;28;20481;-90
2022/06/03 04:33:11;;;;;;;22.42;11.98;;;;;;;20.08;100.00;100676.19;4995741;28;20045;-90
2022/06/03 04:36:01;;;;;;;26.30;12.65;;;;;;;20.37;100.00;100679.28;5006944;28;20078;-89
2022/06/03 04:38:51;;;;;;;16.40;11.48;;;;;;;20.33;100.00;100670.00;5012753;28;20068;-89
2022/06/03 04:41:58;;;;;;;23.77;11.40;;;;;;;20.41;100.00;100677.78;5002582;28;20057;-90
2022/06/03 04:44:51;;;;;;;25.25;12.15;;;;;;;20.33;100.00;100681.59;5001437;28;20476;-90
2022/06/03 04:47:44;;;;;;;20.08;11.63;;;;;;;20.27;100.00;100681.66;5023983;28;20029;-88
2022/06/03 04:50:37;;;;;;;21.98;11.73;;;;;;;20.22;100.00;100705.69;5014483;28;20030;-87
2022/06/03 04:53:45;;;;;;;20.90;12.57;;;;;;;20.36;100.00;100709.94;5014473;28;20075;-86
2022/06/03 04:56:44;;;;;;;19.55;10.98;;;;;;;20.37;100.00;100714.28;4996497;28;20065;-88
2022/06/03 04:59:51;;;;;;;20.80;11.13;;;;;;;20.38;100.00;100711.34;4979363;28;20066;-86
2022/06/03 05:02:47;;;;;;;16.17;12.88;;;;;;;20.53;100.00;100706.44;4977913;28;20081;-87
2022/06/03 05:05:28;;;;;;;22.73;11.98;;;;;;;20.59;100.00;100713.63;4994534;28;20365;-86
2022/06/03 05:08:31;;;;;;;22.92;11.68;;;;;;;20.57;100.00;100717.59;4995968;28;20058;-86
2022/06/03 05:11:03;;;;;;;18.80;11.35;;;;;;;20.65;100.00;100720.00;4966523;28;20070;-86
2022/06/03 05:14:06;;;;;;;25.35;11.23;;;;;;;20.64;100.00;100723.75;4992769;28;20039;-87
2022/06/03 05:17:10;;;;;;;17.00;11.02;;;;;;;20.73;100.00;100708.13;4994422;28;20038;-86
2022/06/03 05:20:05;;;;;;;21.23;11.00;;;;;;;20.80;100.00;100708.88;4995853;28;20046;-87
2022/06/03 05:23:02;;;;;;;21.05;10.75;;;;;;;20.88;100.00;100714.75;4993958;28;20030;-88
2022/06/03 05:25:45;;;;;;;16.70;10.77;;;;;;;20.98;100.00;100706.97;4994981;28;20045;-86
2022/06/03 05:28:48;;;;;;;18.13;10.32;;;;;;;21.11;100.00;100704.16;4977447;28;20104;-89
2022/06/03 05:31:26;;;;;;;17.40;10.32;;;;;;;21.30;100.00;100706.84;4996224;28;20045;-86
2022/06/03 05:34:12;;;;;;;17.45;10.50;;;;;;;21.41;100.00;100708.78;4997233;28;20026;-89
2022/06/03 05:37:03;;;;;;;21.95;10.55;;;;;;;21.48;100.00;100704.09;4979620;28;20468;-88
2022/06/03 05:39:58;;;;;;;16.27;10.20;;;;;;;21.41;100.00;100706.88;4999498;28;20037;-85
2022/06/03 05:43:01;;;;;;;15.63;10.18;;;;;;;21.54;100.00;100703.19;4997304;28;20042;-85
2022/06/03 05:46:09;;;;;;;20.52;11.13;;;;;;;21.51;100.00;100695.56;4980943;28;20042;-86
2022/06/03 05:48:59;;;;;;;17.83;10.73;;;;;;;21.71;100.00;100701.47;4899689;29;20448;-87
2022/06/03 05:51:51;;;;;;;23.88;12.23;;;;;;;21.70;100.00;100710.63;4897243;29;20045;-87
2022/06/03 05:54:26;;;;;;;22.05;11.40;;;;;;;21.72;100.00;100711.22;4900067;29;20526;-86
2022/06/03 05:57:00;;;;;;;20.65;12.05;;;;;;;21.73;100.00;100712.88;4899444;29;20045;-84
2022/06/03 06:00:03;;;;;;;20.13;10.65;;;;;;;21.83;100.00;100715.84;4899871;29;20036;-85
2022/06/03 06:02:54;;;;;;;22.63;10.93;;;;;;;21.91;100.00;100725.47;4925683;28;20049;-83
2022/06/03 06:05:35;;;;;;;22.38;11.15;;;;;;;21.85;100.00;100727.19;4998761;28;20118;-84
2022/06/03 06:08:15;;;;;;;20.42;10.43;;;;;;;21.86;100.00;100709.16;5000660;28;20022;-83
2022/06/03 06:11:03;;;;;;;16.63;9.57;;;;;;;21.92;100.00;100689.34;4998004;28;20062;-83
2022/06/03 06:13:47;;;;;;;18.55;10.70;;;;;;;21.92;100.00;100690.19;4999021;28;20042;-84
2022/06/03 06:16:16;;;;;;;22.58;10.10;;;;;;;21.80;100.00;100692.00;5004076;28;20035;-84
2022/06/03 06:18:50;;;;;;;16.15;10.07;;;;;;;21.74;100.00;100686.72;5002963;28;20037;-84
2022/06/03 06:21:28;;;;;;;25.73;10.18;;;;;;;22.12;100.00;100696.06;4980463;28;20041;-85
2022/06/03 06:24:32;;;;;;;23.75;13.70;;;;;;;22.14;100.00;100695.81;5002175;28;20041;-86
2022/06/03 06:27:24;;;;;;;26.00;12.90;;;;;;;22.24;100.00;100698.78;4986654;28;20046;-87
2022/06/03 06:30:17;;;;;;;29.15;14.98;;;;;;;22.52;100.00;100689.97;4996561;28;20069;-85
2022/06/03 06:33:00;;;;;;;30.25;14.80;;;;;;;22.23;100.00;100683.66;4996477;28;20088;-83
2022/06/03 06:35:56;;;;;;;30.13;13.40;;;;;;;22.00;100.00;100676.34;4996443;28;20058;-85
2022/06/03 06:38:38;;;;;;;20.63;12.30;;;;;;;22.02;100.00;100679.63;5020566;23;20046;-83
2022/06/03 06:41:34;;;;;;;22.17;12.73;;;;;;;22.07;100.00;100687.84;4995151;28;20066;-87
2022/06/03 06:44:10;;;;;;;28.00;12.88;;;;;;;22.59;100.00;100688.81;4996006;28;20593;-84
2022/06/03 06:47:02;;;;;;;28.63;13.45;;;;;;;23.16;100.00;100703.28;4995565;28;20061;-86
2022/06/03 06:49:36;;;;;;;24.97;13.97;;;;;;;23.51;100.00;100703.16;4995906;28;20037;-85
2022/06/03 06:52:05;;;;;;;21.90;14.45;;;;;;;23.71;100.00;100707.31;4996978;28;20041;-84
2022/06/03 06:54:39;;;;;;;29.52;17.25;;;;;;;23.34;100.00;100709.56;4995646;28;20072;-82
2022/06/03 06:57:36;;;;;;;24.70;15.15;;;;;;;23.75;100.00;100711.16;4995811;28;20031;-86
2022/06/03 07:00:24;;;;;;;21.75;13.98;;;;;;;24.04;99.96;100715.47;4984670;28;20061;-84
2022/06/03 07:02:56;;;;;;;26.70;13.38;;;;;;;24.11;99.65;100722.38;4996091;28;20042;-84
2022/06/03 07:05:39;;;;;;;25.33;15.77;;;;;;;23.80;100.00;100725.59;4978229;28;20045;-83
2022/06/03 07:08:16;;;;;;;28.95;16.35;;;;;;;23.63;100.00;100727.47;4996463;28;20492;-83
2022/06/03 07:11:02;;;;;;;24.95;16.98;;;;;;;23.35;100.00;100730.13;4981240;28;20038;-85
2022/06/03 07:13:39;;;;;;;30.02;16.10;;;;;;;23.22;100.00;100738.53;4996503;28;20092;-86
2022/06/03 07:16:14;;;;;;;28.60;16.80;;;;;;;23.05;100.00;100743.88;4996419;28;20049;-82
2022/06/03 07:22:32;;;;;;;29.50;16.55;;;;;;;23.05;100.00;100744.69;4996031;28;20074;-87
2022/06/03 07:25:02;;;;;;;27.65;17.38;;;;;;;23.04;100.00;100747.63;4983968;28;20050;-88
2022/06/03 07:27:43;;;;;;;34.67;17.55;;;;;;;23.30;100.00;100751.69;4998039;28;20034;-88
2022/06/03 07:30:12;;;;;;;27.98;17.70;;;;;;;23.15;100.00;100761.13;4997553;28;20424;-90
2022/06/03 07:32:42;;;;;;;32.33;17.85;;;;;;;23.17;100.00;100764.41;4981237;28;20039;-90
2022/06/03 07:35:15;;;;;;;24.55;17.00;;;;;;;23.09;100.00;100759.38;5000319;28;20034;-87
2022/06/03 07:37:56;;;;;;;29.80;18.63;;;;;;;23.09;100.00;100753.97;4980355;28;20058;-86
2022/06/03 07:40:32;;;;;;;26.10;16.85;;;;;;;23.40;100.00;100750.03;4997411;28;20026;-90
2022/06/03 07:43:09;;;;;;;30.50;18.92;;;;;;;23.21;100.00;100759.34;4997116;28;20121;-85
2022/06/03 07:45:47;;;;;;;28.83;17.52;;;;;;;23.15;100.00;100754.91;4999850;28;20118;-90
2022/06/03 07:48:22;;;;;;;28.92;18.17;;;;;;;23.24;100.00;100758.84;4999280;28;20093;-86
2022/06/03 07:50:59;;;;;;;27.88;18.83;;;;;;;23.46;100.00;100745.56;4982202;28;20118;-92
2022/06/03 07:53:52;;;;;;;28.13;18.60;;;;;;;23.43;100.00;100737.91;4999233;28;20030;-89
2022/06/03 07:56:21;;;;;;;;;;;;;;;23.08;100.00;100730.69;4981138;28;20043;-87
2022/06/03 07:58:51;;;;;;;32.38;18.67;;;;;;;23.11;100.00;100718.56;4996623;28;19924;-89
2022/06/03 08:01:22;;;;;;;32.35;21.23;;;;;;;23.27;100.00;100720.50;4979944;28;20435;-87
2022/06/03 08:03:48;;;;;;;37.08;22.70;;;;;;;23.21;100.00;100720.66;4998912;28;20042;-84
2022/06/03 08:06:14;;;;;;;36.42;25.17;;;;;;;23.22;100.00;100722.31;5000368;28;20101;-89
2022/06/03 08:11:30;;;;;;;39.97;26.05;;;;;;;23.25;100.00;100754.28;4996852;28;20050;-93
2022/06/03 08:13:59;;;;;;;43.88;25.50;;;;;;;23.45;100.00;100760.13;4995470;28;20046;-85
2022/06/03 08:16:45;;;;;;;41.67;27.20;;;;;;;23.58;100.00;100760.66;4996022;28;20495;-85
2022/06/03 08:19:15;;;;;;;45.63;31.10;;;;;;;23.47;100.00;100760.69;4996446;28;20412;-88
2022/06/03 08:21:46;;;;;;;52.83;32.78;;;;;;;23.50;100.00;100746.69;4979445;28;20041;-86
2022/06/03 08:24:15;;;;;;;49.25;32.45;;;;;;;23.41;100.00;100742.72;4980601;28;20042;-86
2022/06/03 08:26:44;;;;;;;45.78;32.05;;;;;;;23.48;100.00;100738.00;4996607;28;20034;-84
2022/06/03 08:29:24;;;;;;;48.53;33.28;;;;;;;23.37;100.00;100736.13;4995824;28;20033;-87
2022/06/03 08:31:50;;;;;;;54.60;31.17;;;;;;;23.28;100.00;100726.75;4996497;28;20034;-84
2022/06/03 08:34:31;;;;;;;51.10;32.33;;;;;;;23.20;100.00;100719.81;4996700;28;20038;-88
2022/06/03 08:36:57;;;;;;;51.45;30.33;;;;;;;22.91;100.00;100707.34;5001758;28;20034;-82
2022/06/03 08:39:26;;;;;;;51.83;31.38;;;;;;;22.90;100.00;100695.69;5010751;28;20041;-84
2022/06/03 08:42:22;;;;;;;43.50;29.60;;;;;;;23.02;100.00;100712.72;5011058;28;20106;-86
2022/06/03 08:45:07;;;;;;;45.75;29.15;;;;;;;23.05;100.00;100709.53;4991337;28;20062;-86
2022/06/03 08:47:53;;;;;;;45.65;29.70;;;;;;;23.20;100.00;100702.81;5007866;28;20030;-87
2022/06/03 08:50:22;;;;;;;49.03;30.05;;;;;;;23.04;100.00;100718.72;5004607;28;20054;-90
2022/06/03 08:53:15;;;;;;;52.13;30.25;;;;;;;23.24;100.00;100717.47;4996955;28;20038;-86
2022/06/03 08:55:54;;;;;;;54.08;30.33;;;;;;;23.30;100.00;100721.94;4995096;28;20030;-88
2022/06/03 08:58:49;;;;;;;45.08;29.88;;;;;;;23.46;100.00;100723.91;4978066;28;20051;-82
2022/06/03 09:01:53;;;;;;;48.95;27.63;;;;;;;23.93;100.00;100719.09;4995606;28;20035;-83
2022/06/03 09:04:24;;;;;;;49.47;29.17;;;;;;;23.89;100.00;100716.03;4980535;28;20487;-84
2022/06/03 09:07:06;;;;;;;55.58;28.95;;;;;;;23.96;100.00;100716.69;5005362;28;20054;-86
2022/06/03 09:10:02;;;;;;;45.72;27.67;;;;;;;24.40;100.00;100725.00;4985456;28;20034;-86
2022/06/03 09:12:27;;;;;;;44.22;27.05;;;;;;;24.35;100.00;100727.66;4998827;28;20088;-86
2022/06/03 09:14:53;;;;;;;44.90;28.33;;;;;;;24.32;100.00;100720.84;4980332;28;20034;-83
2022/06/03 09:17:42;;;;;;;48.35;27.65;;;;;;;24.05;100.00;100722.53;4981761;28;20034;-90
2022/06/03 09:20:17;;;;;;;41.83;24.38;;;;;;;24.27;100.00;100720.75;4981246;28;20089;-90
2022/06/03 09:22:45;;;;;;;44.38;26.58;;;;;;;24.34;100.00;100726.00;4998287;28;20034;-87
2022/06/03 09:25:18;;;;;;;46.75;27.42;;;;;;;24.28;100.00;100727.00;5001159;28;20142;-91
2022/06/03 09:27:48;;;;;;;44.63;25.88;;;;;;;24.45;100.00;100727.81;4986365;28;20421;-91
2022/06/03 09:30:31;;;;;;;49.50;26.58;;;;;;;24.57;100.00;100734.75;4986534;28;20084;-89
2022/06/03 09:33:00;;;;;;;44.55;28.05;;;;;;;24.37;100.00;100739.03;4982707;28;20415;-90
2022/06/03 09:35:27;;;;;;;40.75;25.73;;;;;;;24.43;100.00;100746.19;5005097;28;20035;-89
2022/06/03 09:37:58;;;;;;;43.78;24.67;;;;;;;24.29;100.00;100750.31;4988812;28;20042;-90
2022/06/03 09:41:05;;;;;;;39.38;22.50;;;;;;;24.34;100.00;100747.66;5005650;22;20042;-94
2022/06/03 09:43:59;;;;;;;48.15;23.75;;;;;;;24.45;100.00;100746.78;5005580;22;20042;-92
2022/06/03 09:49:35;;;;;;;38.55;25.15;;;;;;;24.77;100.00;100747.78;4961551;29;20078;-89
2022/06/03 09:52:26;;;;;;;39.10;24.63;;;;;;;24.93;100.00;100740.69;4960628;28;20074;-88
2022/06/03 09:55:13;;;;;;;41.22;24.85;;;;;;;24.86;100.00;100740.09;4938218;29;20051;-88
2022/06/03 09:57:44;;;;;;;36.42;23.83;;;;;;;25.10;100.00;100738.75;4942144;28;20059;-88
2022/06/03 10:00:47;;;;;;;40.90;24.48;;;;;;;25.46;100.00;100748.13;4945896;28;20513;-88
2022/06/03 10:03:25;;;;;;;42.22;27.05;;;;;;;25.40;100.00;100730.16;4930244;28;20415;-88
2022/06/03 10:06:01;;;;;;;41.85;26.85;;;;;;;25.21;100.00;100745.97;4946155;29;20124;-89
2022/06/03 10:12:48;;;;;;;43.75;25.00;;;;;;;25.36;100.00;100742.59;4928804;28;20035;-87
2022/06/03 10:14:00;;;;;;;45.90;25.65;;;;;;;25.05;100.00;100746.84;4963199;28;20090;-90
2022/06/03 10:16:28;;;;;;;40.92;24.95;;;;;;;24.98;100.00;100746.22;4946174;28;20050;-87
2022/06/03 10:18:57;;;;;;;43.10;24.63;;;;;;;24.79;100.00;100751.06;4945601;29;20043;-89
2022/06/03 10:21:22;;;;;;;41.03;23.50;;;;;;;25.09;100.00;100756.91;4961472;28;20038;-91
2022/06/03 10:23:59;;;;;;;36.50;24.00;;;;;;;25.03;100.00;100747.09;4946579;29;20393;-89
2022/06/03 10:26:39;;;;;;;42.50;23.67;;;;;;;24.97;99.58;100750.81;4945629;29;20060;-89
2022/06/03 10:29:09;;;;;;;38.35;25.20;;;;;;;24.86;100.00;100749.03;4943437;29;20090;-87
2022/06/03 10:31:36;;;;;;;37.67;25.05;;;;;;;24.83;100.00;100746.81;4941688;29;20039;-89
2022/06/03 10:34:10;;;;;;;50.10;27.35;;;;;;;24.73;100.00;100741.22;4957209;28;20192;-88
2022/06/03 10:36:44;;;;;;;49.05;27.33;;;;;;;24.73;100.00;100734.97;4958085;28;20070;-91
2022/06/03 10:39:14;;;;;;;46.67;27.10;;;;;;;24.62;100.00;100734.03;4958235;28;20122;-89
2022/06/03 10:41:44;;;;;;;43.65;24.58;;;;;;;24.78;100.00;100741.31;4958392;28;20031;-89
2022/06/03 10:44:36;;;;;;;44.40;25.50;;;;;;;24.89;100.00;100724.13;4959300;28;20031;-89
2022/06/03 10:47:04;;;;;;;42.38;23.70;;;;;;;24.89;100.00;100726.03;4942526;28;20071;-88
2022/06/03 10:49:38;;;;;;;42.97;24.20;;;;;;;24.73;100.00;100735.78;4959700;28;20043;-91
2022/06/03 11:03:38;;;;;;;40.95;25.35;;;;;;;24.71;100.00;100748.78;4964576;28;20040;-91
2022/06/03 11:06:14;;;;;;;41.35;24.35;;;;;;;24.76;100.00;100748.84;4962231;28;20121;-89
2022/06/03 11:08:47;;;;;;;37.22;23.05;;;;;;;24.79;100.00;100756.47;4963109;28;20110;-88
2022/06/03 11:11:12;;;;;;;39.17;23.95;;;;;;;24.62;100.00;100753.00;4962315;28;20126;-87
2022/06/03 11:13:41;;;;;;;43.95;25.50;;;;;;;24.48;100.00;100741.69;4944351;29;20094;-89
2022/06/03 11:16:19;;;;;;;43.67;23.85;;;;;;;24.54;100.00;100734.44;4965101;28;20043;-91
2022/06/03 11:18:45;;;;;;;39.13;22.83;;;;;;;24.60;100.00;100739.69;4973617;28;20035;-88
2022/06/03 11:21:16;;;;;;;39.13;23.50;;;;;;;24.64;100.00;100740.00;4970179;28;20031;-92
2022/06/03 11:23:42;;;;;;;36.25;22.65;;;;;;;24.54;100.00;100737.16;4951592;28;20122;-90
2022/06/03 11:26:12;;;;;;;43.30;24.25;;;;;;;24.61;100.00;100740.50;4948274;29;20559;-93
2022/06/03 11:28:59;;;;;;;36.65;23.63;;;;;;;24.61;100.00;100751.34;4961656;28;20050;-90
2022/06/03 11:31:32;;;;;;;38.95;24.02;;;;;;;24.73;100.00;100762.91;4949355;29;20039;-93
2022/06/03 11:34:22;;;;;;;;;;;;;;;24.71;100.00;100759.63;4947868;28;20473;-94
2022/06/03 11:36:56;;;;;;;41.15;23.15;;;;;;;24.55;100.00;100744.22;4966623;28;19914;-87
2022/06/03 11:39:40;;;;;;;34.15;21.92;;;;;;;24.44;100.00;100734.28;4962475;28;20035;-89
2022/06/03 11:42:06;;;;;;;42.15;22.52;;;;;;;24.48;100.00;100730.84;4960911;28;20171;-93
2022/06/03 11:44:41;;;;;;;39.25;23.55;;;;;;;24.43;100.00;100730.75;4969746;28;20477;-92
2022/06/03 11:47:24;;;;;;;40.20;23.52;;;;;;;24.41;100.00;100726.66;4954732;29;20047;-91
2022/06/03 11:50:11;;;;;;;36.60;22.33;;;;;;;24.59;100.00;100739.94;4969823;28;20496;-90
2022/06/03 11:52:38;;;;;;;34.35;23.40;;;;;;;24.43;100.00;100751.59;4952830;28;20043;-94
2022/06/03 11:55:08;;;;;;;41.33;24.30;;;;;;;24.31;100.00;100754.41;4954759;29;20062;-90
2022/06/03 11:57:46;;;;;;;36.42;23.55;;;;;;;24.17;100.00;100736.84;5012721;23;20056;-90
2022/06/03 12:00:19;;;;;;;42.28;22.70;;;;;;;24.26;100.00;100739.97;5002094;28;20053;-88
2022/06/03 12:03:03;;;;;;;47.42;23.80;;;;;;;24.20;100.00;100741.75;5001529;28;20034;-92
2022/06/03 12:05:48;;;;;;;39.85;22.88;;;;;;;24.05;100.00;100723.34;4991925;28;20038;-94
2022/06/03 12:08:28;;;;;;;40.00;23.80;;;;;;;24.07;100.00;100699.53;4975610;28;20034;-93
2022/06/03 12:14:28;;;;;;;39.83;23.80;;;;;;;23.91;100.00;100694.94;5008547;28;20038;-93
2022/06/03 12:17:00;;;;;;;44.63;25.85;;;;;;;23.89;100.00;100702.50;5005434;28;20042;-90
2022/06/03 12:19:42;;;;;;;51.17;26.23;;;;;;;23.79;100.00;100683.38;5004592;28;20034;-89
2022/06/03 12:22:23;;;;;;;46.05;26.30;;;;;;;23.82;100.00;100688.31;4983458;28;20058;-89
2022/06/03 12:24:54;;;;;;;;;;;;;;;24.07;100.00;100694.13;4988336;28;20034;-90
2022/06/03 12:27:28;;;;;;;48.88;28.27;;;;;;;23.91;100.00;100704.94;5002872;28;19926;-89
2022/06/03 12:30:32;;;;;;;56.60;27.25;;;;;;;23.80;100.00;100711.28;5003116;28;20026;-89
2022/06/03 12:33:02;;;;;;;46.60;27.17;;;;;;;23.71;100.00;100718.13;4984881;28;20125;-91
2022/06/03 12:35:47;;;;;;;55.60;28.58;;;;;;;23.74;100.00;100726.59;4986534;28;20408;-89
2022/06/03 12:38:43;;;;;;;45.72;26.85;;;;;;;23.92;100.00;100739.91;4990804;28;20102;-91
2022/06/03 12:41:09;;;;;;;48.45;29.42;;;;;;;23.92;100.00;100745.34;5008025;28;20034;-92
2022/06/03 12:43:49;;;;;;;46.63;29.60;;;;;;;23.97;100.00;100760.81;4988827;28;20201;-91
2022/06/03 12:46:36;;;;;;;55.28;30.15;;;;;;;23.89;100.00;100767.47;5007152;28;20114;-90